sensor_id;sensor_type;location;lat;lon;timestamp;pressure;altitude;pressure_sealevel;temperature
20733;BMP180;10527;52.124;5.196;2023-04-24T00:01:55;99687.00;;;21.40
20733;BMP180;10527;52.124;5.196;2023-04-24T00:04:23;99695.00;;;21.40
20733;BMP180;10527;52.124;5.196;2023-04-24T00:06:52;99697.00;;;21.40
20733;BMP180;10527;52.124;5.196;2023-04-24T00:09:24;99705.00;;;21.40
20733;BMP180;10527;52.124;5.196;2023-04-24T00:11:51;99715.00;;;21.40
20733;BMP180;10527;52.124;5.196;2023-04-24T00:14:18;99713.00;;;21.50
20733;BMP180;10527;52.124;5.196;2023-04-24T00:16:45;99709.00;;;21.40
20733;BMP180;10527;52.124;5.196;2023-04-24T00:19:12;99714.00;;;21.40
20733;BMP180;10527;52.124;5.196;2023-04-24T00:21:40;99720.00;;;21.40
20733;BMP180;10527;52.124;5.196;2023-04-24T00:24:08;99718.00;;;21.40
20733;BMP180;10527;52.124;5.196;2023-04-24T00:26:35;99725.00;;;21.40
20733;BMP180;10527;52.124;5.196;2023-04-24T00:29:02;99723.00;;;21.40
20733;BMP180;10527;52.124;5.196;2023-04-24T00:31:29;99732.00;;;21.40
20733;BMP180;10527;52.124;5.196;2023-04-24T00:33:56;99724.00;;;21.30
20733;BMP180;10527;52.124;5.196;2023-04-24T00:36:23;99729.00;;;21.30
20733;BMP180;10527;52.124;5.196;2023-04-24T00:38:49;99736.00;;;21.30
20733;BMP180;10527;52.124;5.196;2023-04-24T00:41:16;99725.00;;;21.30
20733;BMP180;10527;52.124;5.196;2023-04-24T00:43:43;99735.00;;;21.30
20733;BMP180;10527;52.124;5.196;2023-04-24T00:46:10;99744.00;;;21.30
20733;BMP180;10527;52.124;5.196;2023-04-24T00:48:39;99739.00;;;21.20
20733;BMP180;10527;52.124;5.196;2023-04-24T00:51:06;99732.00;;;21.20
20733;BMP180;10527;52.124;5.196;2023-04-24T00:53:33;99734.00;;;21.20
20733;BMP180;10527;52.124;5.196;2023-04-24T00:56:02;99737.00;;;21.20
20733;BMP180;10527;52.124;5.196;2023-04-24T00:58:29;99745.00;;;21.20
20733;BMP180;10527;52.124;5.196;2023-04-24T01:00:57;99749.00;;;21.20
20733;BMP180;10527;52.124;5.196;2023-04-24T01:03:29;99736.00;;;21.20
20733;BMP180;10527;52.124;5.196;2023-04-24T01:05:57;99740.00;;;21.20
20733;BMP180;10527;52.124;5.196;2023-04-24T01:08:28;99746.00;;;21.20
20733;BMP180;10527;52.124;5.196;2023-04-24T01:10:57;99743.00;;;21.20
20733;BMP180;10527;52.124;5.196;2023-04-24T01:13:24;99749.00;;;21.20
20733;BMP180;10527;52.124;5.196;2023-04-24T01:15:51;99744.00;;;21.20
20733;BMP180;10527;52.124;5.196;2023-04-24T01:18:22;99743.00;;;21.30
20733;BMP180;10527;52.124;5.196;2023-04-24T01:20:53;99758.00;;;21.30
20733;BMP180;10527;52.124;5.196;2023-04-24T01:23:21;99754.00;;;21.30
20733;BMP180;10527;52.124;5.196;2023-04-24T01:25:49;99757.00;;;21.30
20733;BMP180;10527;52.124;5.196;2023-04-24T01:28:17;99757.00;;;21.30
20733;BMP180;10527;52.124;5.196;2023-04-24T01:30:44;99752.00;;;21.30
20733;BMP180;10527;52.124;5.196;2023-04-24T01:33:11;99749.00;;;21.30
20733;BMP180;10527;52.124;5.196;2023-04-24T01:35:40;99753.00;;;21.30
20733;BMP180;10527;52.124;5.196;2023-04-24T01:38:07;99758.00;;;21.30
20733;BMP180;10527;52.124;5.196;2023-04-24T01:40:34;99763.00;;;21.30
20733;BMP180;10527;52.124;5.196;2023-04-24T01:43:01;99763.00;;;21.30
20733;BMP180;10527;52.124;5.196;2023-04-24T01:45:29;99753.00;;;21.30
20733;BMP180;10527;52.124;5.196;2023-04-24T01:47:56;99757.00;;;21.40
20733;BMP180;10527;52.124;5.196;2023-04-24T01:50:24;99758.00;;;21.40
20733;BMP180;10527;52.124;5.196;2023-04-24T01:52:51;99758.00;;;21.40
20733;BMP180;10527;52.124;5.196;2023-04-24T01:55:18;99751.00;;;21.40
20733;BMP180;10527;52.124;5.196;2023-04-24T01:57:45;99756.00;;;21.40
20733;BMP180;10527;52.124;5.196;2023-04-24T02:00:12;99757.00;;;21.40
20733;BMP180;10527;52.124;5.196;2023-04-24T02:02:41;99755.00;;;21.50
20733;BMP180;10527;52.124;5.196;2023-04-24T02:05:11;99751.00;;;21.50
20733;BMP180;10527;52.124;5.196;2023-04-24T02:07:38;99755.00;;;21.50
20733;BMP180;10527;52.124;5.196;2023-04-24T02:10:05;99754.00;;;21.50
20733;BMP180;10527;52.124;5.196;2023-04-24T02:12:33;99755.00;;;21.60
20733;BMP180;10527;52.124;5.196;2023-04-24T02:15:00;99755.00;;;21.60
20733;BMP180;10527;52.124;5.196;2023-04-24T02:17:27;99757.00;;;21.60
20733;BMP180;10527;52.124;5.196;2023-04-24T02:19:53;99762.00;;;21.60
20733;BMP180;10527;52.124;5.196;2023-04-24T02:22:20;99754.00;;;21.60
20733;BMP180;10527;52.124;5.196;2023-04-24T02:24:47;99759.00;;;21.60
20733;BMP180;10527;52.124;5.196;2023-04-24T02:27:14;99758.00;;;21.60
20733;BMP180;10527;52.124;5.196;2023-04-24T02:29:41;99762.00;;;21.60
20733;BMP180;10527;52.124;5.196;2023-04-24T02:32:08;99763.00;;;21.60
20733;BMP180;10527;52.124;5.196;2023-04-24T02:34:41;99762.00;;;21.60
20733;BMP180;10527;52.124;5.196;2023-04-24T02:37:08;99760.00;;;21.50
20733;BMP180;10527;52.124;5.196;2023-04-24T02:39:35;99763.00;;;21.50
20733;BMP180;10527;52.124;5.196;2023-04-24T02:42:02;99765.00;;;21.50
20733;BMP180;10527;52.124;5.196;2023-04-24T02:44:29;99760.00;;;21.50
20733;BMP180;10527;52.124;5.196;2023-04-24T02:46:56;99757.00;;;21.50
20733;BMP180;10527;52.124;5.196;2023-04-24T02:49:22;99756.00;;;21.50
20733;BMP180;10527;52.124;5.196;2023-04-24T02:51:49;99759.00;;;21.50
20733;BMP180;10527;52.124;5.196;2023-04-24T02:54:16;99759.00;;;21.50
20733;BMP180;10527;52.124;5.196;2023-04-24T02:56:45;99761.00;;;21.50
20733;BMP180;10527;52.124;5.196;2023-04-24T02:59:12;99760.00;;;21.50
20733;BMP180;10527;52.124;5.196;2023-04-24T03:01:39;99764.00;;;21.50
20733;BMP180;10527;52.124;5.196;2023-04-24T03:04:06;99755.00;;;21.40
20733;BMP180;10527;52.124;5.196;2023-04-24T03:06:34;99759.00;;;21.40
20733;BMP180;10527;52.124;5.196;2023-04-24T03:09:02;99764.00;;;21.40
20733;BMP180;10527;52.124;5.196;2023-04-24T03:11:30;99757.00;;;21.40
20733;BMP180;10527;52.124;5.196;2023-04-24T03:13:56;99755.00;;;21.40
20733;BMP180;10527;52.124;5.196;2023-04-24T03:16:23;99753.00;;;21.40
20733;BMP180;10527;52.124;5.196;2023-04-24T03:18:50;99761.00;;;21.30
20733;BMP180;10527;52.124;5.196;2023-04-24T03:21:17;99753.00;;;21.30
20733;BMP180;10527;52.124;5.196;2023-04-24T03:23:44;99749.00;;;21.30
20733;BMP180;10527;52.124;5.196;2023-04-24T03:26:10;99753.00;;;21.30
20733;BMP180;10527;52.124;5.196;2023-04-24T03:28:37;99752.00;;;21.30
20733;BMP180;10527;52.124;5.196;2023-04-24T03:31:04;99755.00;;;21.30
20733;BMP180;10527;52.124;5.196;2023-04-24T03:33:31;99752.00;;;21.30
20733;BMP180;10527;52.124;5.196;2023-04-24T03:35:58;99754.00;;;21.30
20733;BMP180;10527;52.124;5.196;2023-04-24T03:38:24;99748.00;;;21.30
20733;BMP180;10527;52.124;5.196;2023-04-24T03:40:51;99752.00;;;21.30
20733;BMP180;10527;52.124;5.196;2023-04-24T03:43:18;99755.00;;;21.30
20733;BMP180;10527;52.124;5.196;2023-04-24T03:45:45;99753.00;;;21.30
20733;BMP180;10527;52.124;5.196;2023-04-24T03:48:12;99755.00;;;21.30
20733;BMP180;10527;52.124;5.196;2023-04-24T03:50:39;99753.00;;;21.30
20733;BMP180;10527;52.124;5.196;2023-04-24T03:53:05;99749.00;;;21.30
20733;BMP180;10527;52.124;5.196;2023-04-24T03:55:32;99749.00;;;21.30
20733;BMP180;10527;52.124;5.196;2023-04-24T03:57:59;99749.00;;;21.40
20733;BMP180;10527;52.124;5.196;2023-04-24T04:00:26;99758.00;;;21.40
20733;BMP180;10527;52.124;5.196;2023-04-24T04:02:53;99755.00;;;21.40
20733;BMP180;10527;52.124;5.196;2023-04-24T04:05:20;99754.00;;;21.40
20733;BMP180;10527;52.124;5.196;2023-04-24T04:07:47;99762.00;;;21.50
20733;BMP180;10527;52.124;5.196;2023-04-24T04:10:13;99765.00;;;21.50
20733;BMP180;10527;52.124;5.196;2023-04-24T04:12:41;99771.00;;;21.50
20733;BMP180;10527;52.124;5.196;2023-04-24T04:15:09;99767.00;;;21.50
20733;BMP180;10527;52.124;5.196;2023-04-24T04:17:36;99765.00;;;21.50
20733;BMP180;10527;52.124;5.196;2023-04-24T04:20:05;99769.00;;;21.50
20733;BMP180;10527;52.124;5.196;2023-04-24T04:22:41;99773.00;;;21.60
20733;BMP180;10527;52.124;5.196;2023-04-24T04:25:11;99778.00;;;21.60
20733;BMP180;10527;52.124;5.196;2023-04-24T04:27:40;99781.00;;;21.60
20733;BMP180;10527;52.124;5.196;2023-04-24T04:30:08;99779.00;;;21.60
20733;BMP180;10527;52.124;5.196;2023-04-24T04:32:36;99781.00;;;21.60
20733;BMP180;10527;52.124;5.196;2023-04-24T04:35:04;99782.00;;;21.60
20733;BMP180;10527;52.124;5.196;2023-04-24T04:37:32;99787.00;;;21.60
20733;BMP180;10527;52.124;5.196;2023-04-24T04:40:05;99793.00;;;21.60
20733;BMP180;10527;52.124;5.196;2023-04-24T04:42:33;99799.00;;;21.60
20733;BMP180;10527;52.124;5.196;2023-04-24T04:45:00;99788.00;;;21.60
20733;BMP180;10527;52.124;5.196;2023-04-24T04:47:28;99797.00;;;21.60
20733;BMP180;10527;52.124;5.196;2023-04-24T04:49:59;99794.00;;;21.60
20733;BMP180;10527;52.124;5.196;2023-04-24T04:52:26;99807.00;;;21.60
20733;BMP180;10527;52.124;5.196;2023-04-24T04:54:53;99812.00;;;21.60
20733;BMP180;10527;52.124;5.196;2023-04-24T04:57:20;99818.00;;;21.60
20733;BMP180;10527;52.124;5.196;2023-04-24T04:59:47;99828.00;;;21.60
20733;BMP180;10527;52.124;5.196;2023-04-24T05:02:14;99830.00;;;21.60
20733;BMP180;10527;52.124;5.196;2023-04-24T05:04:41;99828.00;;;21.50
20733;BMP180;10527;52.124;5.196;2023-04-24T05:07:09;99827.00;;;21.50
20733;BMP180;10527;52.124;5.196;2023-04-24T05:09:37;99840.00;;;21.50
20733;BMP180;10527;52.124;5.196;2023-04-24T05:12:04;99846.00;;;21.50
20733;BMP180;10527;52.124;5.196;2023-04-24T05:14:30;99852.00;;;21.50
20733;BMP180;10527;52.124;5.196;2023-04-24T05:16:57;99857.00;;;21.40
20733;BMP180;10527;52.124;5.196;2023-04-24T05:19:25;99862.00;;;21.40
20733;BMP180;10527;52.124;5.196;2023-04-24T05:21:52;99873.00;;;21.40
20733;BMP180;10527;52.124;5.196;2023-04-24T05:24:21;99878.00;;;21.30
20733;BMP180;10527;52.124;5.196;2023-04-24T05:26:48;99881.00;;;21.30
20733;BMP180;10527;52.124;5.196;2023-04-24T05:29:14;99884.00;;;21.20
20733;BMP180;10527;52.124;5.196;2023-04-24T05:31:41;99886.00;;;21.20
20733;BMP180;10527;52.124;5.196;2023-04-24T05:34:08;99899.00;;;21.20
20733;BMP180;10527;52.124;5.196;2023-04-24T05:36:36;99905.00;;;21.10
20733;BMP180;10527;52.124;5.196;2023-04-24T05:39:03;99914.00;;;21.10
20733;BMP180;10527;52.124;5.196;2023-04-24T05:41:34;99920.00;;;21.10
20733;BMP180;10527;52.124;5.196;2023-04-24T05:44:01;99913.00;;;21.00
20733;BMP180;10527;52.124;5.196;2023-04-24T05:46:27;99912.00;;;21.00
20733;BMP180;10527;52.124;5.196;2023-04-24T05:48:54;99917.00;;;20.90
20733;BMP180;10527;52.124;5.196;2023-04-24T05:51:21;99929.00;;;20.90
20733;BMP180;10527;52.124;5.196;2023-04-24T05:53:48;99934.00;;;20.90
20733;BMP180;10527;52.124;5.196;2023-04-24T05:56:15;99938.00;;;21.00
20733;BMP180;10527;52.124;5.196;2023-04-24T05:58:42;99934.00;;;21.00
20733;BMP180;10527;52.124;5.196;2023-04-24T06:01:09;99941.00;;;21.00
20733;BMP180;10527;52.124;5.196;2023-04-24T06:03:38;99953.00;;;21.00
20733;BMP180;10527;52.124;5.196;2023-04-24T06:06:08;99949.00;;;21.00
20733;BMP180;10527;52.124;5.196;2023-04-24T06:08:35;99950.00;;;21.00
20733;BMP180;10527;52.124;5.196;2023-04-24T06:11:02;99962.00;;;21.00
20733;BMP180;10527;52.124;5.196;2023-04-24T06:13:30;99967.00;;;21.00
20733;BMP180;10527;52.124;5.196;2023-04-24T06:15:57;99973.00;;;21.00
20733;BMP180;10527;52.124;5.196;2023-04-24T06:18:24;99970.00;;;20.90
20733;BMP180;10527;52.124;5.196;2023-04-24T06:20:50;99986.00;;;20.90
20733;BMP180;10527;52.124;5.196;2023-04-24T06:23:18;99994.00;;;20.80
20733;BMP180;10527;52.124;5.196;2023-04-24T06:25:45;99992.00;;;20.70
20733;BMP180;10527;52.124;5.196;2023-04-24T06:28:12;100008.00;;;20.70
20733;BMP180;10527;52.124;5.196;2023-04-24T06:30:39;100021.00;;;20.60
20733;BMP180;10527;52.124;5.196;2023-04-24T06:33:05;100027.00;;;20.50
20733;BMP180;10527;52.124;5.196;2023-04-24T06:35:45;100042.00;;;20.50
20733;BMP180;10527;52.124;5.196;2023-04-24T06:38:12;100045.00;;;20.40
20733;BMP180;10527;52.124;5.196;2023-04-24T06:40:39;100044.00;;;20.40
20733;BMP180;10527;52.124;5.196;2023-04-24T06:43:06;100051.00;;;20.30
20733;BMP180;10527;52.124;5.196;2023-04-24T06:45:33;100061.00;;;20.30
20733;BMP180;10527;52.124;5.196;2023-04-24T06:47:59;100075.00;;;20.20
20733;BMP180;10527;52.124;5.196;2023-04-24T06:50:26;100073.00;;;20.20
20733;BMP180;10527;52.124;5.196;2023-04-24T06:52:53;100093.00;;;20.20
20733;BMP180;10527;52.124;5.196;2023-04-24T06:55:20;100088.00;;;20.10
20733;BMP180;10527;52.124;5.196;2023-04-24T06:57:47;100100.00;;;20.10
20733;BMP180;10527;52.124;5.196;2023-04-24T07:00:14;100108.00;;;20.10
20733;BMP180;10527;52.124;5.196;2023-04-24T07:02:41;100105.00;;;20.10
20733;BMP180;10527;52.124;5.196;2023-04-24T07:05:08;100116.00;;;20.10
20733;BMP180;10527;52.124;5.196;2023-04-24T07:07:35;100102.00;;;20.00
20733;BMP180;10527;52.124;5.196;2023-04-24T07:10:05;100116.00;;;20.10
20733;BMP180;10527;52.124;5.196;2023-04-24T07:12:32;100123.00;;;20.10
20733;BMP180;10527;52.124;5.196;2023-04-24T07:15:00;100132.00;;;20.10
20733;BMP180;10527;52.124;5.196;2023-04-24T07:17:27;100138.00;;;20.10
20733;BMP180;10527;52.124;5.196;2023-04-24T07:19:54;100147.00;;;20.10
20733;BMP180;10527;52.124;5.196;2023-04-24T07:22:21;100145.00;;;20.10
20733;BMP180;10527;52.124;5.196;2023-04-24T07:24:47;100159.00;;;20.10
20733;BMP180;10527;52.124;5.196;2023-04-24T07:27:14;100152.00;;;20.10
20733;BMP180;10527;52.124;5.196;2023-04-24T07:29:42;100156.00;;;20.10
20733;BMP180;10527;52.124;5.196;2023-04-24T07:32:12;100165.00;;;20.10
20733;BMP180;10527;52.124;5.196;2023-04-24T07:34:39;100159.00;;;20.10
20733;BMP180;10527;52.124;5.196;2023-04-24T07:37:06;100165.00;;;20.20
20733;BMP180;10527;52.124;5.196;2023-04-24T07:39:33;100187.00;;;20.20
20733;BMP180;10527;52.124;5.196;2023-04-24T07:42:00;100186.00;;;20.20
20733;BMP180;10527;52.124;5.196;2023-04-24T07:44:28;100189.00;;;20.20
20733;BMP180;10527;52.124;5.196;2023-04-24T07:46:55;100198.00;;;20.20
20733;BMP180;10527;52.124;5.196;2023-04-24T07:49:23;100197.00;;;20.20
20733;BMP180;10527;52.124;5.196;2023-04-24T07:51:50;100196.00;;;20.20
20733;BMP180;10527;52.124;5.196;2023-04-24T07:54:17;100206.00;;;20.20
20733;BMP180;10527;52.124;5.196;2023-04-24T07:56:46;100209.00;;;20.20
20733;BMP180;10527;52.124;5.196;2023-04-24T07:59:12;100218.00;;;20.20
20733;BMP180;10527;52.124;5.196;2023-04-24T08:01:39;100220.00;;;20.20
20733;BMP180;10527;52.124;5.196;2023-04-24T08:04:07;100237.00;;;20.20
20733;BMP180;10527;52.124;5.196;2023-04-24T08:06:35;100238.00;;;20.10
20733;BMP180;10527;52.124;5.196;2023-04-24T08:09:02;100250.00;;;20.10
20733;BMP180;10527;52.124;5.196;2023-04-24T08:11:29;100255.00;;;20.10
20733;BMP180;10527;52.124;5.196;2023-04-24T08:13:56;100261.00;;;20.10
20733;BMP180;10527;52.124;5.196;2023-04-24T08:16:23;100265.00;;;20.00
20733;BMP180;10527;52.124;5.196;2023-04-24T08:18:52;100274.00;;;20.00
20733;BMP180;10527;52.124;5.196;2023-04-24T08:21:19;100277.00;;;20.00
20733;BMP180;10527;52.124;5.196;2023-04-24T08:23:47;100281.00;;;19.90
20733;BMP180;10527;52.124;5.196;2023-04-24T08:26:14;100289.00;;;19.90
20733;BMP180;10527;52.124;5.196;2023-04-24T08:28:41;100298.00;;;20.00
20733;BMP180;10527;52.124;5.196;2023-04-24T08:31:08;100303.00;;;20.00
20733;BMP180;10527;52.124;5.196;2023-04-24T08:33:35;100319.00;;;20.00
20733;BMP180;10527;52.124;5.196;2023-04-24T08:36:04;100323.00;;;20.00
20733;BMP180;10527;52.124;5.196;2023-04-24T08:38:31;100323.00;;;19.90
20733;BMP180;10527;52.124;5.196;2023-04-24T08:41:00;100311.00;;;20.00
20733;BMP180;10527;52.124;5.196;2023-04-24T08:43:28;100333.00;;;20.00
20733;BMP180;10527;52.124;5.196;2023-04-24T08:45:56;100335.00;;;20.00
20733;BMP180;10527;52.124;5.196;2023-04-24T08:48:25;100330.00;;;20.00
20733;BMP180;10527;52.124;5.196;2023-04-24T08:50:59;100337.00;;;20.00
20733;BMP180;10527;52.124;5.196;2023-04-24T08:53:26;100352.00;;;20.00
20733;BMP180;10527;52.124;5.196;2023-04-24T08:55:55;100336.00;;;20.00
20733;BMP180;10527;52.124;5.196;2023-04-24T08:58:25;100347.00;;;20.00
20733;BMP180;10527;52.124;5.196;2023-04-24T09:01:01;100353.00;;;20.00
20733;BMP180;10527;52.124;5.196;2023-04-24T09:03:29;100354.00;;;20.00
20733;BMP180;10527;52.124;5.196;2023-04-24T09:05:57;100353.00;;;20.10
20733;BMP180;10527;52.124;5.196;2023-04-24T09:08:26;100371.00;;;20.10
20733;BMP180;10527;52.124;5.196;2023-04-24T09:10:53;100371.00;;;20.10
20733;BMP180;10527;52.124;5.196;2023-04-24T09:13:20;100371.00;;;20.10
20733;BMP180;10527;52.124;5.196;2023-04-24T09:15:47;100378.00;;;20.10
20733;BMP180;10527;52.124;5.196;2023-04-24T09:18:14;100380.00;;;20.10
20733;BMP180;10527;52.124;5.196;2023-04-24T09:21:07;100379.00;;;20.20
20733;BMP180;10527;52.124;5.196;2023-04-24T09:23:34;100373.00;;;20.20
20733;BMP180;10527;52.124;5.196;2023-04-24T09:26:03;100386.00;;;20.20
20733;BMP180;10527;52.124;5.196;2023-04-24T09:28:36;100393.00;;;20.30
20733;BMP180;10527;52.124;5.196;2023-04-24T09:31:13;100383.00;;;20.30
20733;BMP180;10527;52.124;5.196;2023-04-24T09:34:04;100394.00;;;20.30
20733;BMP180;10527;52.124;5.196;2023-04-24T09:36:39;100404.00;;;20.30
20733;BMP180;10527;52.124;5.196;2023-04-24T09:39:13;100399.00;;;20.30
20733;BMP180;10527;52.124;5.196;2023-04-24T09:41:50;100410.00;;;20.30
20733;BMP180;10527;52.124;5.196;2023-04-24T09:44:23;100408.00;;;20.30
20733;BMP180;10527;52.124;5.196;2023-04-24T09:47:01;100418.00;;;20.30
20733;BMP180;10527;52.124;5.196;2023-04-24T09:49:30;100422.00;;;20.30
20733;BMP180;10527;52.124;5.196;2023-04-24T09:52:23;100433.00;;;20.40
20733;BMP180;10527;52.124;5.196;2023-04-24T09:54:55;100430.00;;;20.50
20733;BMP180;10527;52.124;5.196;2023-04-24T09:57:21;100425.00;;;20.50
20733;BMP180;10527;52.124;5.196;2023-04-24T09:59:53;100426.00;;;20.50
20733;BMP180;10527;52.124;5.196;2023-04-24T10:02:20;100435.00;;;20.50
20733;BMP180;10527;52.124;5.196;2023-04-24T10:04:56;100459.00;;;20.60
20733;BMP180;10527;52.124;5.196;2023-04-24T10:07:26;100449.00;;;20.60
20733;BMP180;10527;52.124;5.196;2023-04-24T10:09:54;100459.00;;;20.60
20733;BMP180;10527;52.124;5.196;2023-04-24T10:12:21;100465.00;;;20.50
20733;BMP180;10527;52.124;5.196;2023-04-24T10:14:50;100464.00;;;20.40
20733;BMP180;10527;52.124;5.196;2023-04-24T10:17:18;100458.00;;;20.40
20733;BMP180;10527;52.124;5.196;2023-04-24T10:19:47;100459.00;;;20.40
20733;BMP180;10527;52.124;5.196;2023-04-24T10:22:17;100462.00;;;20.40
20733;BMP180;10527;52.124;5.196;2023-04-24T10:24:47;100456.00;;;20.40
20733;BMP180;10527;52.124;5.196;2023-04-24T10:27:15;100459.00;;;20.40
20733;BMP180;10527;52.124;5.196;2023-04-24T10:29:45;100457.00;;;20.50
20733;BMP180;10527;52.124;5.196;2023-04-24T10:32:12;100471.00;;;20.50
20733;BMP180;10527;52.124;5.196;2023-04-24T10:34:39;100465.00;;;20.60
20733;BMP180;10527;52.124;5.196;2023-04-24T10:37:06;100476.00;;;20.60
20733;BMP180;10527;52.124;5.196;2023-04-24T10:39:35;100477.00;;;20.70
20733;BMP180;10527;52.124;5.196;2023-04-24T10:42:15;100476.00;;;20.70
20733;BMP180;10527;52.124;5.196;2023-04-24T10:44:42;100476.00;;;20.80
20733;BMP180;10527;52.124;5.196;2023-04-24T10:47:15;100471.00;;;20.90
20733;BMP180;10527;52.124;5.196;2023-04-24T10:49:42;100483.00;;;20.90
20733;BMP180;10527;52.124;5.196;2023-04-24T10:52:09;100491.00;;;21.00
20733;BMP180;10527;52.124;5.196;2023-04-24T10:57:27;100478.00;;;21.10
20733;BMP180;10527;52.124;5.196;2023-04-24T11:00:19;100482.00;;;21.10
20733;BMP180;10527;52.124;5.196;2023-04-24T11:02:47;100514.00;;;21.10
20733;BMP180;10527;52.124;5.196;2023-04-24T11:05:19;100513.00;;;21.10
20733;BMP180;10527;52.124;5.196;2023-04-24T11:08:14;100531.00;;;21.00
20733;BMP180;10527;52.124;5.196;2023-04-24T11:10:46;100538.00;;;20.90
20733;BMP180;10527;52.124;5.196;2023-04-24T11:13:22;100529.00;;;20.80
20733;BMP180;10527;52.124;5.196;2023-04-24T11:16:14;100528.00;;;20.70
20733;BMP180;10527;52.124;5.196;2023-04-24T11:18:43;100518.00;;;20.60
20733;BMP180;10527;52.124;5.196;2023-04-24T11:21:13;100528.00;;;20.60
20733;BMP180;10527;52.124;5.196;2023-04-24T11:23:42;100526.00;;;20.60
20733;BMP180;10527;52.124;5.196;2023-04-24T11:26:22;100538.00;;;20.60
20733;BMP180;10527;52.124;5.196;2023-04-24T11:28:51;100536.00;;;20.60
20733;BMP180;10527;52.124;5.196;2023-04-24T11:31:39;100542.00;;;20.70
20733;BMP180;10527;52.124;5.196;2023-04-24T11:34:15;100550.00;;;20.70
20733;BMP180;10527;52.124;5.196;2023-04-24T11:36:46;100546.00;;;20.70
20733;BMP180;10527;52.124;5.196;2023-04-24T11:39:15;100552.00;;;20.70
20733;BMP180;10527;52.124;5.196;2023-04-24T11:41:42;100552.00;;;20.80
20733;BMP180;10527;52.124;5.196;2023-04-24T11:44:09;100552.00;;;20.90
20733;BMP180;10527;52.124;5.196;2023-04-24T11:46:37;100542.00;;;21.00
20733;BMP180;10527;52.124;5.196;2023-04-24T11:49:07;100563.00;;;21.10
20733;BMP180;10527;52.124;5.196;2023-04-24T11:51:34;100556.00;;;21.20
20733;BMP180;10527;52.124;5.196;2023-04-24T11:54:18;100566.00;;;21.30
20733;BMP180;10527;52.124;5.196;2023-04-24T11:56:47;100563.00;;;21.40
20733;BMP180;10527;52.124;5.196;2023-04-24T11:59:14;100566.00;;;21.40
20733;BMP180;10527;52.124;5.196;2023-04-24T12:01:48;100571.00;;;21.40
20733;BMP180;10527;52.124;5.196;2023-04-24T12:04:17;100576.00;;;21.40
20733;BMP180;10527;52.124;5.196;2023-04-24T12:07:00;100586.00;;;21.40
20733;BMP180;10527;52.124;5.196;2023-04-24T12:09:29;100582.00;;;21.50
20733;BMP180;10527;52.124;5.196;2023-04-24T12:12:06;100589.00;;;21.50
20733;BMP180;10527;52.124;5.196;2023-04-24T12:14:49;100595.00;;;21.50
20733;BMP180;10527;52.124;5.196;2023-04-24T12:17:17;100597.00;;;21.50
20733;BMP180;10527;52.124;5.196;2023-04-24T12:19:48;100598.00;;;21.60
20733;BMP180;10527;52.124;5.196;2023-04-24T12:22:15;100593.00;;;21.60
20733;BMP180;10527;52.124;5.196;2023-04-24T12:25:03;100599.00;;;21.60
20733;BMP180;10527;52.124;5.196;2023-04-24T12:27:32;100609.00;;;21.60
20733;BMP180;10527;52.124;5.196;2023-04-24T12:30:03;100605.00;;;21.70
20733;BMP180;10527;52.124;5.196;2023-04-24T12:32:30;100613.00;;;21.70
20733;BMP180;10527;52.124;5.196;2023-04-24T12:34:57;100635.00;;;21.70
20733;BMP180;10527;52.124;5.196;2023-04-24T12:37:26;100616.00;;;21.70
20733;BMP180;10527;52.124;5.196;2023-04-24T12:40:10;100616.00;;;21.60
20733;BMP180;10527;52.124;5.196;2023-04-24T12:42:49;100637.00;;;21.60
20733;BMP180;10527;52.124;5.196;2023-04-24T12:45:18;100633.00;;;21.60
20733;BMP180;10527;52.124;5.196;2023-04-24T12:47:46;100639.00;;;21.50
20733;BMP180;10527;52.124;5.196;2023-04-24T12:50:15;100652.00;;;21.40
20733;BMP180;10527;52.124;5.196;2023-04-24T12:52:43;100652.00;;;21.40
20733;BMP180;10527;52.124;5.196;2023-04-24T12:55:10;100649.00;;;21.30
20733;BMP180;10527;52.124;5.196;2023-04-24T12:57:40;100652.00;;;21.20
20733;BMP180;10527;52.124;5.196;2023-04-24T13:00:09;100649.00;;;21.20
20733;BMP180;10527;52.124;5.196;2023-04-24T13:02:37;100666.00;;;21.10
20733;BMP180;10527;52.124;5.196;2023-04-24T13:05:05;100653.00;;;21.10
20733;BMP180;10527;52.124;5.196;2023-04-24T13:07:33;100663.00;;;21.00
20733;BMP180;10527;52.124;5.196;2023-04-24T13:10:00;100655.00;;;21.00
20733;BMP180;10527;52.124;5.196;2023-04-24T13:12:27;100657.00;;;20.90
20733;BMP180;10527;52.124;5.196;2023-04-24T13:14:54;100653.00;;;20.90
20733;BMP180;10527;52.124;5.196;2023-04-24T13:17:22;100646.00;;;21.00
20733;BMP180;10527;52.124;5.196;2023-04-24T13:19:50;100649.00;;;21.00
20733;BMP180;10527;52.124;5.196;2023-04-24T13:22:18;100662.00;;;21.00
20733;BMP180;10527;52.124;5.196;2023-04-24T13:24:45;100663.00;;;21.10
20733;BMP180;10527;52.124;5.196;2023-04-24T13:27:15;100675.00;;;21.10
20733;BMP180;10527;52.124;5.196;2023-04-24T13:29:43;100668.00;;;21.10
20733;BMP180;10527;52.124;5.196;2023-04-24T13:32:10;100669.00;;;21.10
20733;BMP180;10527;52.124;5.196;2023-04-24T13:34:38;100672.00;;;21.10
20733;BMP180;10527;52.124;5.196;2023-04-24T13:37:05;100670.00;;;21.20
20733;BMP180;10527;52.124;5.196;2023-04-24T13:39:32;100688.00;;;21.20
20733;BMP180;10527;52.124;5.196;2023-04-24T13:41:59;100682.00;;;21.20
20733;BMP180;10527;52.124;5.196;2023-04-24T13:44:29;100686.00;;;21.30
20733;BMP180;10527;52.124;5.196;2023-04-24T13:46:58;100674.00;;;21.30
20733;BMP180;10527;52.124;5.196;2023-04-24T13:49:26;100672.00;;;21.40
20733;BMP180;10527;52.124;5.196;2023-04-24T13:51:55;100679.00;;;21.40
20733;BMP180;10527;52.124;5.196;2023-04-24T13:54:22;100685.00;;;21.50
20733;BMP180;10527;52.124;5.196;2023-04-24T13:56:52;100677.00;;;21.60
20733;BMP180;10527;52.124;5.196;2023-04-24T13:59:20;100675.00;;;21.70
20733;BMP180;10527;52.124;5.196;2023-04-24T14:01:48;100676.00;;;21.80
20733;BMP180;10527;52.124;5.196;2023-04-24T14:04:15;100683.00;;;21.80
20733;BMP180;10527;52.124;5.196;2023-04-24T14:06:43;100677.00;;;21.80
20733;BMP180;10527;52.124;5.196;2023-04-24T14:09:10;100688.00;;;21.90
20733;BMP180;10527;52.124;5.196;2023-04-24T14:11:37;100693.00;;;21.80
20733;BMP180;10527;52.124;5.196;2023-04-24T14:14:04;100685.00;;;21.80